DRI-NNSC Building Weather observations

Data are for 10 minute period ending at time listed.
 Day   Time   Solar   Ave.   Ave.  Ave.  Vector  Max.   Baro.   Total    
  of    of     Rad.   Air    Rel.  Wind   Wind   Wind  Press.  Precip.   
Year   Day            Temp.  Hum.  Speed  Dir.   Gust                    
2016   (PST)  Kw/m2    F      %     mph   deg.    mph    mb.     in.     
-------------------------------------------------------------------------
 123   10:10   0.84   61.3    32    4.2   135      8   851.4    0.00 
 123   10:20   0.86   61.1    32    2.7    99     10   851.4    0.00 
 123   10:30   0.87   61.2    32    4.4   112     11   851.3    0.00 
 123   10:40   0.89   62.1    31    3.9   102     12   851.4    0.00 
 123   10:50   0.50   60.9    32    3.4   100      9   851.5    0.00 
 123   11:00   0.83   62.2    31    3.0   123      9   851.5    0.00 
 123   11:10   0.92   63.4    29    4.4   135     10   851.4    0.00 
 123   11:20   0.98   63.8    28    4.9   168     11   851.3    0.00 
 123   11:30   0.98   64.3    26    5.1   194     11   851.2    0.00 
 123   11:40   0.33   62.9    28    4.0   150      9   851.0    0.00 
 123   11:50   0.85   62.7    28    6.5    98     12   850.9    0.00 
 123   12:00   0.91   64.6    27    3.5   112      8   850.8    0.00 
 123   12:10   1.06   66.4    25    5.0   158     11   850.7    0.00 
 123   12:20   0.70   65.2    26    4.5   104     11   850.7    0.00 
 123   12:30   1.05   64.9    26    4.1    95      8   850.7    0.00 
 123   12:40   0.95   67.8    23    3.8   177      9   850.6    0.00 
 123   12:50   0.96   68.5    24    4.3   174      8   850.5    0.00 
 123   13:00   0.32   64.7    25    4.6   142     14   850.5    0.00 
 123   13:10   0.35   63.7    27    5.9   119     16   850.5    0.00 
 123   13:20   0.29   65.2    25    4.0   166     10   850.5    0.00 
 123   13:30   0.26   64.2    25    3.7   190      8   850.4    0.00 
 123   13:40   0.28   64.2    25    3.2   262      6   850.4    0.00 
 123   13:50   0.36   65.2    25    4.3   177     13   850.2    0.00 
 123   14:00   0.26   64.6    25    3.4   183     12   850.1    0.00 
 123   14:10   0.19   64.6    25    5.5   154      9   850.2    0.00 
 123   14:20   0.22   64.4    26    5.8   161     11   850.2    0.00 
 123   14:30   0.27   64.8    26    3.8   152      8   850.1    0.00 
 123   14:40   0.61   65.8    25    3.5   167      9   849.9    0.00 
 123   14:50   0.84   68.1    22    3.1   160      9   849.8    0.00 
 123   15:00   0.86   67.7    22    3.8   120     10   849.8    0.00 
 123   15:10   0.59   67.7    23    4.8   114     12   849.6    0.00 
 123   15:20   0.31   66.6    23    4.8   127      9   849.6    0.00 
 123   15:30   0.22   64.9    24    4.1   114     11   849.5    0.00 
 123   15:40   0.19   64.5    24    5.4   115     12   849.5    0.00 
 123   15:50   0.36   64.8    24    2.7   123      8   849.6    0.00 
 123   16:00   0.64   68.3    21    0.8   104      4   849.6    0.00 
 123   16:10   0.54   68.3    21    3.7   197      9   849.5    0.00 
 123   16:20   0.34   66.9    22    3.1   171      6   849.5    0.00 
 123   16:30   0.39   67.6    22    1.6   239      5   849.4    0.00 
 123   16:40   0.33   67.7    22    1.7   247      6   849.4    0.00 
 123   16:50   0.45   67.0    22    1.9   237      6   849.4    0.00 
 123   17:00   0.43   69.2    20    3.7   165      8   849.4    0.00 
 123   17:10   0.39   68.2    20    3.6   146      7   849.4    0.00 
 123   17:20   0.34   68.1    21    3.0   206      7   849.2    0.00 
 123   17:30   0.29   67.7    21    2.5   235      6   849.1    0.00 
 123   17:40   0.26   66.6    23    3.8   249      9   849.1    0.00 
 123   17:50   0.21   66.9    22    4.1   272      9   849.1    0.00 
 123   18:00   0.10   64.9    24    5.1   269     10   849.1    0.00 
 123   18:10   0.07   64.5    25    4.0   244      8   849.2    0.00 
 123   18:20   0.06   64.2    26    3.3   257      6   849.3    0.00 
 123   18:30   0.06   63.8    26    2.7   272      7   849.4    0.00 
 123   18:40   0.04   63.4    28    3.3   310      7   849.5    0.00 
 123   18:50   0.01   62.8    27    4.1   304      7   849.5    0.00 
 123   19:00   0.01   62.6    27    2.3   258      6   849.5    0.00 
 123   19:10   0.00   62.5    27    2.4   289      6   849.5    0.00 
 123   19:20   0.00   61.7    28    3.2   343      4   849.6    0.00 
 123   19:30   0.00   61.1    29    3.0   348      4   849.6    0.00 
 123   19:40   0.00   60.6    29    1.9   357      4   849.7    0.00 
 123   19:50   0.00   60.0    32    1.9   310      5   849.8    0.00 
 123   20:00   0.00   58.5    36    3.8   307      6   849.9    0.00 
 123   20:10   0.00   58.5    36    4.4   322      6   850.0    0.00 
 123   20:20   0.00   57.8    36    3.9   311      7   850.1    0.00 
 123   20:30   0.00   57.9    36    6.6   331     11   850.3    0.00 
 123   20:40   0.00   57.5    36    7.1   329     12   850.3    0.00 
 123   20:50   0.00   56.8    39    7.0   323     12   850.4    0.00 
 123   21:00   0.00   56.2    41    7.7   335     14   850.4    0.00 
 123   21:10   0.00   56.2    43    8.5   335     15   850.4    0.00 
 123   21:20   0.00   56.0    45   11.2   340     19   850.4    0.00 
 123   21:30   0.00   56.0    46   11.6   340     20   850.5    0.00 
 123   21:40   0.00   56.0    46   12.6   340     19   850.5    0.00 
 123   21:50   0.00   55.7    47   12.2   341     19   850.5    0.00 
 123   22:00   0.00   55.6    48   11.7   337     18   850.6    0.00 
 123   22:10   0.00   55.2    48    9.1   334     17   850.6    0.00 
 123   22:20   0.00   55.0    49    9.6   337     16   850.6    0.00 
 123   22:30   0.00   54.8    50    8.2   330     17   850.7    0.00 
 123   22:40   0.00   54.3    50    4.8   303     11   850.7    0.00 
 123   22:50   0.00   54.1    51    7.0   313     14   850.8    0.00 
 123   23:00   0.00   54.1    51    5.6   325     11   850.9    0.00 
 123   23:10   0.00   53.8    51    4.7   327      9   850.9    0.00 
 123   23:20   0.00   53.6    51    4.2   331      7   850.9    0.00 
 123   23:30   0.00   53.7    50    5.3   338     10   851.0    0.00 
 123   23:40   0.00   53.6    50    5.6   334      9   850.9    0.00 
 123   23:50   0.00   53.4    51    6.3   336     11   851.0    0.00 
 124    0:00   0.00   53.2    51    5.9   331     10   851.0    0.00 
 124    0:10   0.00   52.6    53    5.8   323      8   851.0    0.00 
 124    0:20   0.00   52.0    54    4.4   299      8   850.9    0.00 
 124    0:30   0.00   51.6    54    4.8   313     10   850.8    0.00 
 124    0:40   0.00   52.3    53    5.1   313     11   850.8    0.00 
 124    0:50   0.00   51.2    55    3.4   300      7   850.7    0.00 
 124    1:00   0.00   50.3    57    4.7   291      7   850.6    0.00 
 124    1:10   0.00   50.0    58    4.8   295      9   850.6    0.00 
 124    1:20   0.00   49.7    58    4.6   298      8   850.6    0.00 
 124    1:30   0.00   50.1    57    4.6   312     10   850.5    0.00 
 124    1:40   0.00   51.3    54    8.2   340     13   850.5    0.00 
 124    1:50   0.00   51.9    52    8.4   337     13   850.5    0.00 
 124    2:00   0.00   52.2    51    6.3   335     11   850.5    0.00 
 124    2:10   0.00   49.4    58    2.6   193      5   850.7    0.00 
 124    2:20   0.00   48.3    60    0.7   259      2   850.7    0.00 
 124    2:30   0.00   49.0    59    1.9    30      3   850.8    0.00 
 124    2:40   0.00   48.6    59    0.4   109      1   850.8    0.00 
 124    2:50   0.00   47.9    61    0.5   204      1   850.9    0.00 
 124    3:00   0.00   48.7    59    0.9   218      2   850.9    0.00 
 124    3:10   0.00   47.7    62    1.6   302      2   850.9    0.00 
 124    3:20   0.00   48.1    60    1.1   292      2   850.9    0.00 
 124    3:30   0.00   48.1    60    0.7   339      2   850.8    0.00 
 124    3:40   0.00   48.7    58    1.4    12      3   850.8    0.00 
 124    3:50   0.00   49.4    56    1.5   309      4   850.9    0.00 
 124    4:00   0.00   48.3    60    2.9   318      4   851.0    0.00 
 124    4:10   0.00   48.3    59    2.6   322      4   851.0    0.00 
 124    4:20   0.00   47.3    62    4.0    30      6   851.0    0.00 
 124    4:30   0.00   46.8    64    4.0    58      5   851.0    0.00 
 124    4:40   0.00   46.7    63    4.0    61      5   851.2    0.00 
 124    4:50   0.00   45.8    66    4.6    47      5   851.2    0.00 
 124    5:00   0.00   46.0    66    3.9    50      5   851.2    0.00 
 124    5:10   0.01   45.9    67    2.4    33      4   851.3    0.00 
 124    5:20   0.01   45.6    67    0.9   339      2   851.4    0.00 
 124    5:30   0.02   45.6    67    2.2   330      3   851.4    0.00 
 124    5:40   0.04   46.2    66    1.6   320      3   851.5    0.00 
 124    5:50   0.09   47.8    62    1.6   313      3   851.7    0.00 
 124    6:00   0.11   48.9    60    1.8     5      3   851.7    0.00 
 124    6:10   0.14   50.6    58    0.8   100      2   851.8    0.00 
 124    6:20   0.17   51.4    56    0.9    86      2   851.7    0.00 
 124    6:30   0.20   52.3    56    0.3    78      2   851.7    0.00 
 124    6:40   0.23   53.0    54    0.5   189      2   851.8    0.00 
 124    6:50   0.26   53.5    52    0.9   192      2   851.7    0.00 
 124    7:00   0.30   53.2    53    1.3   175      2   851.8    0.00 
 124    7:10   0.33   54.7    50    0.5   178      3   851.9    0.00 
 124    7:20   0.36   54.1    52    1.6   183      4   851.9    0.00 
 124    7:30   0.41   54.5    50    2.0   163      4   852.0    0.00 
 124    7:40   0.45   54.0    51    1.8   202      4   852.0    0.00 
 124    7:50   0.40   55.4    48    1.8   168      4   852.0    0.00 
 124    8:00   0.48   56.0    46    1.4   189      4   851.9    0.00 
 124    8:10   0.52   55.5    47    2.3   215      4   851.9    0.00 
 124    8:20   0.57   55.9    47    2.3   230      4   851.9    0.00 
 124    8:30   0.58   57.4    44    2.3   187      5   851.9    0.00 
 124    8:40   0.58   58.5    42    1.1   211      3   851.9    0.00 
 124    8:50   0.63   60.6    39    1.4   162      4   851.9    0.00 
 124    9:00   0.66   61.6    37    1.0   131      3   851.8    0.00 
 124    9:10   0.71   62.0    36    2.2   166      6   851.8    0.00 
 124    9:20   0.73   62.1    36    1.5   191      4   851.8    0.00 
 124    9:30   0.74   62.5    35    2.7   181      6   851.7    0.00 
 124    9:40   0.80   62.7    35    4.0   196      8   851.8    0.00 
 124    9:50   0.79   63.2    34    3.4   175      8   851.7    0.00 
 124   10:00   0.80   64.0    33    3.7   184      8   851.6    0.00 

Return to NNSC graphs page.


Western Regional Climate Center,wrcc@dri.edu